Time;durP1;ratioP1;P1;durP2;ratioP2;P2;SDS_P1;SDS_P2;PMS_P1;PMS_P2;Temp;Humidity;BMP_temperature;BMP_pressure;BME280_temperature;BME280_humidity;BME280_pressure;Samples;Min_cycle;Max_cycle;Signal;HPM_P1;HPM_P2
2023/06/26 00:00:20;;;;;;;10.90;9.18;;;24.20;80.90;;;;;;5049462;28;20056;-86
2023/06/26 00:02:45;;;;;;;11.57;9.13;;;24.20;81.10;;;;;;5049737;28;20044;-86
2023/06/26 00:05:11;;;;;;;10.65;8.80;;;24.20;81.60;;;;;;5066310;28;20132;-86
2023/06/26 00:07:37;;;;;;;11.63;9.07;;;24.20;81.90;;;;;;5066363;28;20037;-86
2023/06/26 00:10:03;;;;;;;10.60;9.18;;;24.10;82.30;;;;;;5049655;28;20413;-86
2023/06/26 00:12:30;;;;;;;10.85;9.15;;;24.10;82.60;;;;;;5049609;28;20044;-86
2023/06/26 00:14:56;;;;;;;12.60;9.02;;;24.10;83.10;;;;;;5083019;28;20426;-86
2023/06/26 00:17:22;;;;;;;11.00;9.73;;;24.10;83.10;;;;;;5068563;28;20036;-86
2023/06/26 00:19:48;;;;;;;11.32;9.65;;;24.00;83.90;;;;;;5049921;28;20040;-86
2023/06/26 00:22:14;;;;;;;11.43;9.10;;;24.00;84.60;;;;;;5052630;28;20040;-86
2023/06/26 00:24:40;;;;;;;11.52;9.43;;;24.00;84.70;;;;;;5051882;28;20132;-86
2023/06/26 00:27:06;;;;;;;12.15;10.10;;;24.00;84.70;;;;;;5049686;28;20049;-86
2023/06/26 00:29:31;;;;;;;11.13;9.65;;;24.00;85.20;;;;;;5068771;28;20124;-86
2023/06/26 00:31:57;;;;;;;12.35;10.25;;;23.90;85.60;;;;;;5069023;28;20040;-86
2023/06/26 00:34:22;;;;;;;13.50;10.70;;;23.90;86.10;;;;;;5053054;28;20040;-86
2023/06/26 00:36:48;;;;;;;12.45;9.75;;;23.90;86.50;;;;;;5069419;28;20040;-86
2023/06/26 00:39:15;;;;;;;13.73;10.60;;;23.80;87.20;;;;;;5069679;28;20032;-86
2023/06/26 00:41:41;;;;;;;12.35;9.55;;;23.80;87.50;;;;;;5069100;28;20528;-85
2023/06/26 00:44:07;;;;;;;12.60;10.35;;;23.80;88.10;;;;;;5052740;28;20123;-86
2023/06/26 00:46:32;;;;;;;11.18;9.77;;;23.80;88.40;;;;;;5069523;28;20101;-86
2023/06/26 00:49:03;;;;;;;13.65;10.48;;;23.80;88.80;;;;;;5069583;28;20045;-86
2023/06/26 00:51:30;;;;;;;11.85;10.10;;;23.80;89.10;;;;;;5052260;28;20041;-86
2023/06/26 00:53:56;;;;;;;11.75;9.80;;;23.70;89.50;;;;;;5069312;28;20032;-86
2023/06/26 00:56:22;;;;;;;12.13;10.07;;;23.70;90.10;;;;;;5069198;28;20494;-86
2023/06/26 00:58:48;;;;;;;12.95;10.35;;;23.70;90.20;;;;;;5069563;28;20058;-86
2023/06/26 01:01:16;;;;;;;11.13;9.93;;;23.60;90.50;;;;;;5070987;28;20032;-86
2023/06/26 01:03:43;;;;;;;12.40;10.13;;;23.60;90.80;;;;;;5072720;28;20520;-86
2023/06/26 01:06:11;;;;;;;11.27;9.98;;;23.60;90.90;;;;;;5072749;28;20490;-86
2023/06/26 01:08:38;;;;;;;12.23;10.73;;;23.60;91.30;;;;;;5072629;28;20131;-86
2023/06/26 01:11:04;;;;;;;12.35;10.52;;;23.50;91.60;;;;;;5072362;28;20232;-86
2023/06/26 01:13:30;;;;;;;13.27;11.32;;;23.50;91.90;;;;;;5055811;28;20123;-86
2023/06/26 01:15:58;;;;;;;12.68;10.85;;;23.50;92.30;;;;;;5072512;28;20480;-86
2023/06/26 01:18:25;;;;;;;12.63;10.70;;;23.50;92.40;;;;;;5072664;28;20524;-86
2023/06/26 01:20:54;;;;;;;12.20;10.90;;;23.40;92.80;;;;;;5072136;28;20036;-86
2023/06/26 01:23:28;;;;;;;11.65;9.95;;;23.40;92.80;;;;;;5072229;28;20048;-86
2023/06/26 01:26:09;;;;;;;13.65;11.13;;;23.40;93.20;;;;;;5072334;28;20090;-86
2023/06/26 01:28:40;;;;;;;12.23;10.50;;;23.40;93.30;;;;;;5072779;28;20052;-86
2023/06/26 01:31:07;;;;;;;11.60;10.23;;;23.30;93.90;;;;;;5072229;28;20772;-86
2023/06/26 01:33:33;;;;;;;13.05;10.63;;;23.30;94.20;;;;;;5072191;28;20040;-86
2023/06/26 01:35:59;;;;;;;12.77;10.50;;;23.20;94.60;;;;;;5055713;28;20123;-86
2023/06/26 01:38:25;;;;;;;12.40;11.10;;;23.30;94.80;;;;;;5072164;28;20120;-86
2023/06/26 01:40:52;;;;;;;12.65;10.82;;;23.20;95.30;;;;;;5071906;28;20113;-86
2023/06/26 01:44:14;;;;;;;12.15;10.63;;;23.20;95.50;;;;;;5072250;28;20098;-86
2023/06/26 01:46:49;;;;;;;14.50;11.13;;;23.20;95.10;;;;;;5050906;28;20090;-86
2023/06/26 01:49:21;;;;;;;12.98;11.15;;;23.10;96.20;;;;;;5034110;28;20047;-86
2023/06/26 01:51:54;;;;;;;13.70;12.30;;;23.10;96.40;;;;;;5058899;28;20049;-86
2023/06/26 01:54:24;;;;;;;14.48;12.52;;;23.00;96.90;;;;;;5071908;28;20123;-86
2023/06/26 01:56:53;;;;;;;14.00;12.18;;;23.00;97.30;;;;;;5055353;28;20123;-86
2023/06/26 01:59:20;;;;;;;15.45;12.80;;;22.90;97.90;;;;;;5055294;28;20371;-86
2023/06/26 02:01:47;;;;;;;14.80;12.93;;;22.90;98.70;;;;;;5071156;28;20065;-85
2023/06/26 02:04:12;;;;;;;14.77;13.23;;;22.80;99.60;;;;;;5071385;28;20055;-84
2023/06/26 02:06:38;;;;;;;14.70;12.80;;;22.80;99.90;;;;;;5071777;28;20036;-84
2023/06/26 02:09:03;;;;;;;13.80;12.40;;;22.80;99.90;;;;;;5071472;28;20074;-85
2023/06/26 02:11:29;;;;;;;12.80;11.50;;;22.70;99.90;;;;;;5071172;28;20072;-84
2023/06/26 02:13:55;;;;;;;13.48;12.07;;;22.80;99.90;;;;;;5071041;28;20449;-85
2023/06/26 02:16:20;;;;;;;12.88;11.27;;;22.70;99.90;;;;;;5071373;28;20051;-85
2023/06/26 02:18:46;;;;;;;13.20;10.70;;;22.70;99.90;;;;;;5071525;28;20040;-85
2023/06/26 02:21:12;;;;;;;14.25;12.13;;;22.70;99.90;;;;;;5071274;28;20028;-85
2023/06/26 02:23:38;;;;;;;13.60;12.10;;;22.70;99.90;;;;;;5071069;28;20052;-85
2023/06/26 02:26:03;;;;;;;13.35;11.88;;;22.70;99.90;;;;;;5071108;28;20040;-85
2023/06/26 02:28:30;;;;;;;13.13;11.30;;;22.70;99.90;;;;;;5071371;28;20044;-85
2023/06/26 02:30:56;;;;;;;13.07;10.88;;;22.60;99.90;;;;;;5070846;28;20049;-84
2023/06/26 02:33:22;;;;;;;13.57;11.35;;;22.60;99.90;;;;;;5071397;28;20056;-84
2023/06/26 02:35:50;;;;;;;13.80;12.35;;;22.60;99.90;;;;;;5071182;28;20041;-85
2023/06/26 02:38:16;;;;;;;14.18;12.68;;;22.60;99.90;;;;;;5070939;28;20090;-85
2023/06/26 02:40:42;;;;;;;15.27;13.15;;;22.60;99.90;;;;;;5070526;28;20115;-85
2023/06/26 02:43:08;;;;;;;13.82;12.45;;;22.60;99.90;;;;;;5070984;28;20144;-85
2023/06/26 02:45:33;;;;;;;14.27;12.88;;;22.50;99.90;;;;;;5070583;28;20555;-85
2023/06/26 02:47:59;;;;;;;14.77;12.85;;;22.40;99.90;;;;;;5070818;28;20047;-85
2023/06/26 02:50:24;;;;;;;15.13;13.13;;;22.20;99.90;;;;;;5070382;28;20041;-85
2023/06/26 02:52:52;;;;;;;14.52;13.07;;;22.10;99.90;;;;;;5053844;28;20045;-84
2023/06/26 02:55:19;;;;;;;15.10;13.38;;;22.10;99.90;;;;;;5054008;28;20036;-85
2023/06/26 02:57:44;;;;;;;13.98;12.52;;;22.10;99.90;;;;;;5069994;28;20059;-85
2023/06/26 03:00:11;;;;;;;13.70;12.27;;;22.10;99.90;;;;;;5053479;28;20080;-85
2023/06/26 03:02:37;;;;;;;14.05;12.57;;;22.10;99.90;;;;;;5070681;28;20051;-84
2023/06/26 03:05:04;;;;;;;13.45;12.02;;;22.10;99.90;;;;;;5070516;28;20063;-85
2023/06/26 03:07:29;;;;;;;14.95;12.43;;;22.20;99.90;;;;;;5070602;28;20428;-85
2023/06/26 03:09:55;;;;;;;14.27;11.73;;;22.20;99.90;;;;;;5053410;28;20508;-85
2023/06/26 03:12:21;;;;;;;14.98;13.48;;;22.20;99.90;;;;;;5053379;28;20040;-85
2023/06/26 03:14:46;;;;;;;14.07;12.45;;;22.20;99.90;;;;;;5070225;28;20037;-85
2023/06/26 03:17:12;;;;;;;14.90;12.48;;;22.20;99.90;;;;;;5071713;28;20048;-85
2023/06/26 03:19:37;;;;;;;14.23;12.73;;;22.20;99.90;;;;;;5070069;28;20044;-85
2023/06/26 03:22:03;;;;;;;15.32;12.93;;;22.20;99.90;;;;;;5053631;28;20044;-84
2023/06/26 03:24:29;;;;;;;14.35;12.90;;;22.20;99.90;;;;;;5069179;28;20045;-84
2023/06/26 03:26:55;;;;;;;15.50;13.10;;;22.20;99.90;;;;;;5070045;28;20090;-84
2023/06/26 03:29:20;;;;;;;14.80;12.40;;;22.20;99.90;;;;;;5069993;28;20106;-84
2023/06/26 03:31:46;;;;;;;14.15;12.75;;;22.20;99.90;;;;;;5069983;28;20090;-85
2023/06/26 03:34:11;;;;;;;14.80;13.15;;;22.20;99.90;;;;;;5069945;28;20476;-85
2023/06/26 03:36:37;;;;;;;14.65;13.15;;;22.10;99.90;;;;;;5069987;28;20038;-84
2023/06/26 03:39:04;;;;;;;15.32;13.73;;;22.00;99.90;;;;;;5070041;28;20044;-84
2023/06/26 03:41:29;;;;;;;15.25;12.90;;;22.00;99.90;;;;;;5069876;28;20103;-85
2023/06/26 03:43:56;;;;;;;15.57;14.00;;;21.90;99.90;;;;;;5069997;28;20668;-85
2023/06/26 03:46:22;;;;;;;16.75;14.63;;;21.80;99.90;;;;;;5070165;28;20044;-84
2023/06/26 03:48:47;;;;;;;15.90;14.30;;;21.80;99.90;;;;;;5070181;28;20051;-85
2023/06/26 03:51:13;;;;;;;16.42;14.73;;;21.80;99.90;;;;;;5070864;28;20032;-85
2023/06/26 03:53:39;;;;;;;16.85;15.02;;;21.70;99.90;;;;;;5069810;28;20570;-85
2023/06/26 03:56:05;;;;;;;17.48;15.68;;;21.70;99.90;;;;;;5069737;28;20055;-85
2023/06/26 03:58:30;;;;;;;17.60;15.95;;;21.70;99.90;;;;;;5053307;28;20083;-84
2023/06/26 04:00:57;;;;;;;17.58;15.77;;;21.60;99.90;;;;;;5053111;28;20101;-85
2023/06/26 04:03:23;;;;;;;17.83;16.15;;;21.60;99.90;;;;;;5069753;28;20044;-84
2023/06/26 04:05:49;;;;;;;17.80;16.00;;;21.50;99.90;;;;;;5069823;28;20075;-85
2023/06/26 04:08:14;;;;;;;17.85;16.05;;;21.50;99.90;;;;;;5069779;28;20075;-84
2023/06/26 04:10:40;;;;;;;17.90;16.10;;;21.40;99.90;;;;;;5069436;28;20048;-85
2023/06/26 04:13:05;;;;;;;18.33;16.50;;;21.40;99.90;;;;;;5070748;28;20536;-85
2023/06/26 04:15:31;;;;;;;17.80;15.88;;;21.40;99.90;;;;;;5069915;28;20028;-84
2023/06/26 04:17:57;;;;;;;17.40;15.60;;;21.40;99.90;;;;;;5069588;28;20575;-84
2023/06/26 04:20:22;;;;;;;17.58;15.77;;;21.30;99.90;;;;;;5069388;28;20456;-85
2023/06/26 04:22:48;;;;;;;17.30;15.60;;;21.40;99.90;;;;;;5069754;28;20036;-84
2023/06/26 04:25:13;;;;;;;17.77;16.00;;;21.40;99.90;;;;;;5069619;28;20494;-85
2023/06/26 04:27:39;;;;;;;17.83;16.08;;;21.40;99.90;;;;;;5069331;28;20040;-84
2023/06/26 04:30:05;;;;;;;17.45;15.52;;;21.40;99.90;;;;;;5069258;28;20128;-85
2023/06/26 04:32:31;;;;;;;18.58;16.77;;;21.40;99.90;;;;;;5069523;28;20409;-85
2023/06/26 04:34:57;;;;;;;18.55;16.85;;;21.40;99.90;;;;;;5069361;28;20549;-84
2023/06/26 04:37:22;;;;;;;17.63;15.82;;;21.50;99.90;;;;;;5074745;28;20039;-84
2023/06/26 04:39:48;;;;;;;18.85;16.80;;;21.50;99.90;;;;;;5073146;28;20490;-84
2023/06/26 04:42:14;;;;;;;19.20;16.77;;;21.50;99.90;;;;;;5074240;28;20044;-84
2023/06/26 04:44:40;;;;;;;17.95;16.08;;;21.50;99.90;;;;;;5073231;28;20037;-84
2023/06/26 04:47:07;;;;;;;18.05;15.98;;;21.50;99.90;;;;;;5056432;28;20044;-84
2023/06/26 04:49:33;;;;;;;17.52;15.73;;;21.50;99.90;;;;;;5072411;28;20075;-84
2023/06/26 04:52:02;;;;;;;18.08;16.13;;;21.50;99.90;;;;;;5073024;28;20147;-85
2023/06/26 04:54:28;;;;;;;16.27;14.68;;;21.50;99.90;;;;;;5072820;28;20551;-85
2023/06/26 04:56:54;;;;;;;15.10;13.50;;;21.40;99.90;;;;;;5072748;28;20044;-85
2023/06/26 04:59:19;;;;;;;16.38;14.27;;;21.40;99.90;;;;;;5073584;28;20418;-84
2023/06/26 05:01:48;;;;;;;15.88;13.27;;;21.50;99.90;;;;;;5072500;28;20036;-85
2023/06/26 05:04:15;;;;;;;17.67;13.18;;;21.50;99.90;;;;;;5072793;28;20055;-85
2023/06/26 05:06:40;;;;;;;13.85;12.02;;;21.50;99.90;;;;;;5072602;28;20078;-85
2023/06/26 05:09:06;;;;;;;15.57;11.68;;;21.60;99.90;;;;;;5072429;28;20125;-85
2023/06/26 05:11:32;;;;;;;14.38;11.35;;;21.70;99.90;;;;;;5073616;28;20040;-85
2023/06/26 05:13:58;;;;;;;13.52;11.00;;;21.80;99.90;;;;;;5072676;28;20044;-85
2023/06/26 05:16:23;;;;;;;14.80;10.48;;;21.80;99.90;;;;;;5072900;28;20543;-85
2023/06/26 05:18:49;;;;;;;14.50;10.48;;;21.80;99.90;;;;;;5072369;28;20513;-85
2023/06/26 05:21:16;;;;;;;12.82;9.90;;;21.80;99.90;;;;;;5071744;28;20130;-85
2023/06/26 05:23:44;;;;;;;14.13;9.73;;;21.80;99.90;;;;;;5072304;28;20043;-84
2023/06/26 05:26:10;;;;;;;17.27;10.20;;;21.80;99.90;;;;;;5072689;28;20036;-85
2023/06/26 05:28:36;;;;;;;13.93;10.10;;;21.70;99.90;;;;;;5072405;28;20047;-85
2023/06/26 05:31:04;;;;;;;14.68;10.00;;;21.70;99.90;;;;;;5072093;28;20042;-85
2023/06/26 05:33:30;;;;;;;16.58;9.50;;;21.70;99.90;;;;;;5072115;28;20053;-85
2023/06/26 05:35:56;;;;;;;18.80;9.48;;;21.70;99.90;;;;;;5072048;28;20039;-85
2023/06/26 05:38:22;;;;;;;16.58;9.80;;;21.70;99.90;;;;;;5055398;28;20036;-84
2023/06/26 05:40:49;;;;;;;19.67;9.55;;;21.60;99.90;;;;;;5071772;28;20123;-84
2023/06/26 05:43:14;;;;;;;16.48;9.40;;;21.60;99.90;;;;;;5072219;28;20115;-85
2023/06/26 05:45:40;;;;;;;16.92;8.93;;;21.60;99.90;;;;;;5072073;28;20538;-84
2023/06/26 05:48:06;;;;;;;18.77;9.70;;;21.60;99.90;;;;;;5054019;28;20040;-84
2023/06/26 05:50:32;;;;;;;18.02;9.35;;;21.60;99.90;;;;;;5071123;28;20039;-84
2023/06/26 05:52:58;;;;;;;19.00;9.40;;;21.70;99.90;;;;;;5055068;28;20451;-84
2023/06/26 05:55:24;;;;;;;18.10;9.15;;;21.70;99.90;;;;;;5071862;28;20037;-85
2023/06/26 05:57:51;;;;;;;16.70;9.07;;;21.60;99.90;;;;;;5070853;28;20060;-85
2023/06/26 06:00:17;;;;;;;17.52;9.13;;;21.60;99.90;;;;;;5071903;28;20115;-84
2023/06/26 06:02:43;;;;;;;17.42;9.35;;;21.50;99.90;;;;;;5071220;28;20115;-84
2023/06/26 06:05:09;;;;;;;15.38;8.30;;;21.50;99.90;;;;;;5071394;28;20048;-85
2023/06/26 06:07:35;;;;;;;15.00;8.18;;;21.50;99.90;;;;;;5071909;28;20044;-85
2023/06/26 06:10:03;;;;;;;16.20;8.65;;;21.40;99.90;;;;;;5071029;28;20124;-84
2023/06/26 06:12:28;;;;;;;16.65;8.52;;;21.40;99.90;;;;;;5054274;28;20047;-85
2023/06/26 06:14:55;;;;;;;14.63;8.48;;;21.50;99.90;;;;;;5071180;28;20074;-84
2023/06/26 06:17:21;;;;;;;18.25;8.40;;;21.50;99.90;;;;;;5071025;28;20048;-85
2023/06/26 06:19:47;;;;;;;14.75;8.10;;;21.50;99.90;;;;;;5070531;28;20037;-85
2023/06/26 06:22:12;;;;;;;15.40;7.78;;;21.50;99.90;;;;;;5070733;28;20036;-85
2023/06/26 06:24:38;;;;;;;13.82;7.35;;;21.60;99.90;;;;;;5071046;28;20033;-84
2023/06/26 06:27:03;;;;;;;15.75;7.15;;;21.60;99.90;;;;;;5054596;28;20076;-85
2023/06/26 06:29:29;;;;;;;11.98;7.10;;;21.70;99.90;;;;;;5052552;28;20059;-85
2023/06/26 06:31:54;;;;;;;20.73;6.57;;;21.70;99.90;;;;;;5070349;28;20498;-85
2023/06/26 06:34:20;;;;;;;12.90;5.35;;;21.80;99.90;;;;;;5070969;28;20040;-85
2023/06/26 06:36:46;;;;;;;12.68;5.40;;;21.80;99.90;;;;;;5070627;28;20032;-85
2023/06/26 06:39:12;;;;;;;11.68;5.57;;;21.80;99.90;;;;;;5052939;28;20032;-85
2023/06/26 06:41:38;;;;;;;12.27;4.28;;;21.70;99.90;;;;;;5070036;28;20051;-85
2023/06/26 06:44:04;;;;;;;10.00;4.00;;;21.70;99.90;;;;;;5070372;28;20043;-84
2023/06/26 06:46:29;;;;;;;10.85;4.28;;;21.60;99.90;;;;;;5054106;28;20472;-85
2023/06/26 06:48:56;;;;;;;11.43;3.85;;;21.60;99.90;;;;;;5070717;28;20044;-85
2023/06/26 06:51:22;;;;;;;13.10;4.50;;;21.60;99.90;;;;;;5070280;28;20086;-85
2023/06/26 06:53:47;;;;;;;10.27;4.28;;;21.60;99.90;;;;;;5053982;28;20040;-85
2023/06/26 06:56:13;;;;;;;10.27;3.88;;;21.70;99.90;;;;;;5070743;28;20043;-85
2023/06/26 06:58:42;;;;;;;8.88;3.58;;;21.70;99.90;;;;;;5070622;28;20094;-85
2023/06/26 07:01:09;;;;;;;10.20;3.50;;;21.70;99.90;;;;;;5069619;28;20045;-85
2023/06/26 07:03:34;;;;;;;9.57;3.22;;;21.80;99.90;;;;;;5070470;28;20065;-85
2023/06/26 07:06:01;;;;;;;10.32;3.15;;;21.90;99.90;;;;;;5070873;28;20033;-85
2023/06/26 07:08:26;;;;;;;8.65;2.88;;;21.90;99.90;;;;;;5053829;28;20122;-85
2023/06/26 07:10:52;;;;;;;8.98;2.42;;;21.90;99.90;;;;;;5070152;28;20501;-85
2023/06/26 07:13:17;;;;;;;8.38;2.70;;;21.90;99.90;;;;;;5070157;28;20047;-85
2023/06/26 07:15:43;;;;;;;10.07;3.00;;;22.00;99.90;;;;;;5053560;28;20037;-85
2023/06/26 07:18:09;;;;;;;10.75;3.05;;;22.10;99.90;;;;;;5070269;28;20055;-85
2023/06/26 07:20:35;;;;;;;8.10;2.45;;;22.20;99.90;;;;;;5070071;28;20037;-85
2023/06/26 07:23:00;;;;;;;12.65;2.83;;;22.20;99.90;;;;;;5070115;28;20048;-85
2023/06/26 07:25:26;;;;;;;14.13;2.53;;;22.20;99.90;;;;;;5070527;28;20054;-85
2023/06/26 07:27:51;;;;;;;7.72;2.30;;;22.20;99.90;;;;;;5070221;28;20418;-85
2023/06/26 07:30:17;;;;;;;7.85;2.40;;;22.20;99.90;;;;;;5053021;28;20046;-86
2023/06/26 07:32:45;;;;;;;8.65;2.63;;;22.10;99.90;;;;;;5069954;28;20047;-86
2023/06/26 07:35:10;;;;;;;7.18;2.33;;;22.00;99.90;;;;;;5070361;28;20036;-85
2023/06/26 07:37:36;;;;;;;8.60;2.38;;;22.10;99.90;;;;;;5070100;28;20119;-85
2023/06/26 07:40:02;;;;;;;12.15;2.45;;;22.10;99.90;;;;;;5069547;28;20123;-86
2023/06/26 07:42:28;;;;;;;8.63;2.08;;;22.10;99.90;;;;;;5052732;28;20486;-86
2023/06/26 07:44:53;;;;;;;8.27;2.60;;;22.20;99.60;;;;;;5051888;28;20123;-85
2023/06/26 07:47:19;;;;;;;10.68;2.78;;;22.20;99.90;;;;;;5070082;28;20044;-85
2023/06/26 07:49:44;;;;;;;9.63;2.55;;;22.30;99.90;;;;;;5069763;28;20528;-86
2023/06/26 07:52:11;;;;;;;8.48;2.38;;;22.30;99.90;;;;;;5069778;28;20158;-86
2023/06/26 07:54:37;;;;;;;8.57;2.40;;;22.30;99.90;;;;;;5069868;28;20494;-86
2023/06/26 07:57:08;;;;;;;8.07;2.35;;;22.40;99.90;;;;;;5069078;28;20036;-86
2023/06/26 07:59:34;;;;;;;8.00;2.40;;;22.50;99.90;;;;;;5085901;28;20045;-86
2023/06/26 08:02:01;;;;;;;7.07;2.13;;;22.60;99.90;;;;;;5086615;28;20044;-86
2023/06/26 08:04:29;;;;;;;8.63;2.20;;;22.60;99.70;;;;;;5069988;28;20494;-85
2023/06/26 08:06:57;;;;;;;10.60;2.30;;;22.70;99.90;;;;;;5053071;28;20536;-85
2023/06/26 08:09:25;;;;;;;7.47;2.40;;;22.70;99.80;;;;;;5086553;28;20044;-85
2023/06/26 08:11:51;;;;;;;6.00;2.25;;;22.80;99.30;;;;;;5089436;28;20058;-85
2023/06/26 08:14:17;;;;;;;6.53;2.00;;;22.90;98.40;;;;;;5056583;28;20498;-85
2023/06/26 08:16:44;;;;;;;11.18;2.72;;;22.90;98.10;;;;;;5090877;28;20036;-86
2023/06/26 08:19:11;;;;;;;7.75;2.20;;;23.00;97.40;;;;;;5073607;28;20036;-85
2023/06/26 08:21:36;;;;;;;6.57;2.13;;;23.10;96.90;;;;;;5073187;28;20041;-85
2023/06/26 08:24:02;;;;;;;7.03;2.20;;;23.10;96.60;;;;;;5056858;28;20045;-86
2023/06/26 08:26:28;;;;;;;6.65;2.13;;;23.10;96.60;;;;;;5057227;28;20043;-85
2023/06/26 08:28:54;;;;;;;6.45;1.85;;;23.00;95.50;;;;;;5073386;28;20032;-86
2023/06/26 08:31:20;;;;;;;6.82;1.85;;;23.10;94.10;;;;;;5089926;28;20032;-85
2023/06/26 08:33:46;;;;;;;8.40;1.98;;;23.10;92.90;;;;;;5073340;28;20498;-86
2023/06/26 08:36:12;;;;;;;8.15;2.25;;;23.10;92.80;;;;;;5072793;28;20044;-85
2023/06/26 08:38:40;;;;;;;8.18;1.95;;;23.20;93.30;;;;;;5055966;28;20436;-86
2023/06/26 08:41:06;;;;;;;5.95;1.92;;;23.20;92.20;;;;;;5072783;28;20443;-86
2023/06/26 08:43:32;;;;;;;7.32;2.10;;;23.10;91.70;;;;;;5073012;28;20048;-85
2023/06/26 08:45:58;;;;;;;6.28;1.67;;;23.20;92.90;;;;;;5056444;28;20046;-86
2023/06/26 08:48:25;;;;;;;11.75;2.03;;;23.20;92.30;;;;;;5072966;28;20040;-85
2023/06/26 08:50:53;;;;;;;6.70;2.03;;;23.40;92.80;;;;;;5055757;28;20102;-86
2023/06/26 08:53:41;;;;;;;7.40;2.38;;;23.40;92.50;;;;;;5072478;28;20033;-85
2023/06/26 08:56:08;;;;;;;5.57;2.05;;;23.50;92.20;;;;;;5070015;28;20508;-85
2023/06/26 08:58:36;;;;;;;7.07;2.03;;;23.40;92.60;;;;;;5052984;28;20049;-85
2023/06/26 09:01:02;;;;;;;7.70;2.17;;;23.50;92.10;;;;;;5052561;28;20065;-86
2023/06/26 09:03:28;;;;;;;7.63;2.30;;;23.50;90.90;;;;;;5052967;28;20040;-86
2023/06/26 09:05:53;;;;;;;8.02;2.10;;;23.50;91.20;;;;;;5052700;28;20036;-86
2023/06/26 09:08:19;;;;;;;9.07;2.47;;;23.60;91.30;;;;;;5052597;28;20089;-85
2023/06/26 09:10:45;;;;;;;7.95;2.47;;;23.60;91.00;;;;;;5052344;28;20099;-86
2023/06/26 09:13:10;;;;;;;7.55;2.10;;;23.60;90.10;;;;;;5052402;28;20048;-85
2023/06/26 09:15:43;;;;;;;9.30;2.40;;;23.60;90.30;;;;;;5052697;28;20037;-85
2023/06/26 09:18:09;;;;;;;6.45;2.10;;;23.60;90.90;;;;;;5052727;28;20033;-86
2023/06/26 09:20:35;;;;;;;7.65;2.47;;;23.60;91.10;;;;;;5052286;28;20510;-85
2023/06/26 09:23:02;;;;;;;8.00;2.25;;;23.80;91.40;;;;;;5052423;28;20445;-85
2023/06/26 09:25:28;;;;;;;9.55;2.38;;;23.80;91.00;;;;;;5052448;28;20053;-85
2023/06/26 09:27:54;;;;;;;7.55;2.45;;;23.80;90.30;;;;;;5052340;28;20040;-85
2023/06/26 09:30:20;;;;;;;7.68;2.28;;;23.80;90.20;;;;;;5052152;28;20147;-85
2023/06/26 09:32:46;;;;;;;10.52;2.47;;;23.80;91.10;;;;;;5060442;28;20515;-86
2023/06/26 09:35:11;;;;;;;6.68;2.30;;;23.80;91.00;;;;;;5054999;28;20033;-85
2023/06/26 09:37:37;;;;;;;8.18;3.00;;;23.90;91.10;;;;;;5051341;28;20441;-85
2023/06/26 09:40:04;;;;;;;11.35;3.38;;;23.80;90.20;;;;;;5070473;28;20029;-85
2023/06/26 09:42:30;;;;;;;10.15;2.67;;;23.60;89.70;;;;;;5074288;28;20043;-86
2023/06/26 09:44:56;;;;;;;7.60;2.55;;;23.40;89.00;;;;;;5067063;28;20375;-85
2023/06/26 09:47:24;;;;;;;7.40;2.78;;;23.20;88.20;;;;;;5070507;28;20379;-85
2023/06/26 09:49:50;;;;;;;7.93;2.50;;;23.30;89.90;;;;;;5070908;28;20109;-85
2023/06/26 09:52:17;;;;;;;8.32;2.40;;;23.40;89.70;;;;;;5054932;28;20060;-85
2023/06/26 09:54:46;;;;;;;9.23;2.30;;;23.50;89.10;;;;;;5088960;28;20055;-86
2023/06/26 09:57:13;;;;;;;11.00;2.78;;;23.50;87.60;;;;;;5071752;28;20117;-86
2023/06/26 09:59:40;;;;;;;8.80;2.72;;;23.40;87.80;;;;;;5066635;28;20029;-85
2023/06/26 10:02:07;;;;;;;11.40;3.17;;;23.40;90.00;;;;;;5051737;28;20045;-85
2023/06/26 10:04:34;;;;;;;8.25;2.45;;;23.40;89.10;;;;;;5064906;28;20502;-85
2023/06/26 10:07:04;;;;;;;7.20;2.45;;;23.50;88.80;;;;;;5070945;28;20044;-86
2023/06/26 10:09:31;;;;;;;8.45;2.95;;;23.50;87.30;;;;;;5054871;28;20494;-85
2023/06/26 10:12:07;;;;;;;7.45;2.47;;;23.60;86.80;;;;;;5070454;28;20540;-85
2023/06/26 10:14:39;;;;;;;27.42;4.38;;;23.70;86.20;;;;;;5071747;28;20044;-85
2023/06/26 10:17:13;;;;;;;10.02;2.50;;;23.80;87.40;;;;;;5071572;28;20637;-85
2023/06/26 10:19:41;;;;;;;9.25;2.70;;;24.00;83.70;;;;;;5054398;28;20123;-85
2023/06/26 10:22:08;;;;;;;9.20;2.50;;;24.10;83.20;;;;;;5071115;28;20063;-85
2023/06/26 10:24:36;;;;;;;7.50;2.30;;;24.20;81.70;;;;;;5088037;28;20047;-85
2023/06/26 10:27:15;;;;;;;7.53;2.10;;;24.10;80.00;;;;;;5071166;28;20032;-86
2023/06/26 10:29:41;;;;;;;10.48;2.60;;;24.00;80.00;;;;;;5071004;28;20040;-85
2023/06/26 10:32:08;;;;;;;8.65;2.65;;;24.10;82.70;;;;;;5070265;28;20150;-85
2023/06/26 10:34:34;;;;;;;7.85;2.45;;;24.20;84.50;;;;;;5053542;28;20491;-85
2023/06/26 10:37:01;;;;;;;8.52;2.50;;;24.10;79.60;;;;;;5054147;28;20127;-85
2023/06/26 10:39:26;;;;;;;6.90;2.28;;;24.20;78.70;;;;;;5070920;28;20032;-85
2023/06/26 10:41:54;;;;;;;7.10;2.40;;;24.20;75.80;;;;;;5070634;28;20086;-85
2023/06/26 10:44:20;;;;;;;7.68;2.33;;;24.20;75.50;;;;;;5070925;28;20050;-85
2023/06/26 10:46:58;;;;;;;8.52;2.53;;;24.30;76.20;;;;;;5070470;28;20055;-85
2023/06/26 10:49:29;;;;;;;6.65;2.00;;;24.50;76.20;;;;;;5062369;28;20047;-86
2023/06/26 10:51:57;;;;;;;5.97;2.17;;;24.50;74.40;;;;;;5070796;28;20061;-86
2023/06/26 10:54:23;;;;;;;8.20;2.25;;;24.50;74.20;;;;;;5070709;28;20040;-85
2023/06/26 10:56:58;;;;;;;6.70;1.80;;;24.50;75.00;;;;;;5071054;28;20131;-86
2023/06/26 10:59:28;;;;;;;5.88;1.75;;;24.40;69.10;;;;;;5069943;28;20044;-86
2023/06/26 11:01:55;;;;;;;9.27;2.20;;;24.30;69.90;;;;;;5085354;28;20072;-86
2023/06/26 11:04:46;;;;;;;11.13;2.67;;;24.20;73.10;;;;;;5052182;28;20409;-86
2023/06/26 11:07:25;;;;;;;8.70;2.28;;;24.40;74.80;;;;;;5085891;28;20059;-86
2023/06/26 11:10:08;;;;;;;8.23;2.42;;;24.50;74.10;;;;;;5068676;28;20088;-86
2023/06/26 11:12:38;;;;;;;8.70;2.25;;;24.30;73.00;;;;;;5085456;28;20082;-86
2023/06/26 11:15:12;;;;;;;7.47;2.42;;;24.20;72.90;;;;;;5068255;28;20047;-86
2023/06/26 11:17:38;;;;;;;15.43;3.17;;;24.40;77.30;;;;;;5053231;28;20040;-86
2023/06/26 11:20:09;;;;;;;12.07;2.42;;;24.40;74.50;;;;;;5053107;28;20041;-86
2023/06/26 11:22:37;;;;;;;8.20;2.03;;;24.40;72.70;;;;;;5070209;28;20051;-85
2023/06/26 11:25:03;;;;;;;7.13;2.30;;;24.40;72.10;;;;;;5053530;28;20036;-85
2023/06/26 11:27:38;;;;;;;7.63;1.92;;;24.50;71.50;;;;;;5053609;28;20090;-85
2023/06/26 11:30:09;;;;;;;6.18;1.77;;;24.60;69.30;;;;;;5053267;28;20123;-85
2023/06/26 11:32:38;;;;;;;11.25;2.60;;;24.60;65.10;;;;;;5067917;28;20086;-86
2023/06/26 11:35:04;;;;;;;10.80;2.10;;;24.70;66.90;;;;;;5066920;28;20082;-86
2023/06/26 11:37:31;;;;;;;7.55;2.20;;;24.70;65.30;;;;;;5066457;28;20041;-86
2023/06/26 11:39:57;;;;;;;6.95;2.50;;;24.70;67.40;;;;;;5066364;28;20680;-86
2023/06/26 11:42:25;;;;;;;9.98;2.20;;;24.80;69.10;;;;;;5065540;28;20086;-85
2023/06/26 11:44:51;;;;;;;7.53;2.17;;;24.80;69.50;;;;;;5045617;28;20037;-86
2023/06/26 11:47:18;;;;;;;7.65;2.08;;;24.80;68.90;;;;;;5049746;28;20040;-86
2023/06/26 11:49:46;;;;;;;8.95;1.98;;;24.70;67.80;;;;;;5052898;28;20036;-85
2023/06/26 11:52:12;;;;;;;8.48;1.77;;;24.60;66.40;;;;;;5052800;28;20036;-86
2023/06/26 11:54:39;;;;;;;8.05;1.80;;;24.60;64.90;;;;;;5052748;28;20043;-86
2023/06/26 11:57:04;;;;;;;5.10;1.70;;;24.70;64.10;;;;;;5052693;28;20040;-86
2023/06/26 11:59:39;;;;;;;7.97;1.95;;;24.50;63.70;;;;;;5053131;28;20045;-86
2023/06/26 12:02:07;;;;;;;7.55;2.00;;;24.50;64.80;;;;;;5051950;28;20059;-86
2023/06/26 12:04:35;;;;;;;9.77;2.20;;;24.60;66.20;;;;;;5070745;28;20036;-86
2023/06/26 12:07:04;;;;;;;6.80;1.60;;;24.50;66.20;;;;;;5065691;28;20075;-86
2023/06/26 12:09:30;;;;;;;6.05;1.60;;;24.60;64.50;;;;;;5074388;28;20505;-86
2023/06/26 12:11:57;;;;;;;7.63;2.30;;;24.70;63.80;;;;;;5073610;28;20567;-86
2023/06/26 12:14:25;;;;;;;8.43;2.08;;;24.70;63.30;;;;;;5085620;28;20040;-86
2023/06/26 12:16:52;;;;;;;9.30;2.20;;;24.80;64.90;;;;;;5073307;28;20028;-86
2023/06/26 12:19:23;;;;;;;10.45;1.90;;;24.80;65.50;;;;;;5080162;28;20514;-86
2023/06/26 12:21:52;;;;;;;6.23;1.40;;;24.70;63.80;;;;;;5068276;28;20518;-86
2023/06/26 12:24:21;;;;;;;8.27;1.60;;;24.70;62.70;;;;;;5068557;28;20043;-86
2023/06/26 12:26:53;;;;;;;6.05;1.50;;;24.50;62.00;;;;;;5068974;28;20052;-86
2023/06/26 12:29:20;;;;;;;;;;;24.40;63.10;;;;;;5095417;28;20169;-86
2023/06/26 12:31:52;;;;;;;5.53;1.23;;;24.20;61.40;;;;;;5076014;28;19965;-86
2023/06/26 12:34:26;;;;;;;8.13;1.55;;;24.20;61.40;;;;;;5085991;28;20052;-86
2023/06/26 12:36:52;;;;;;;8.07;1.70;;;24.20;64.40;;;;;;5074061;28;20024;-86